Orenco, Oregon
Current Conditions -  °F | °C
As of 4:53 PM on Monday 20 Oct 2014 (Local Time) from KHIO Reporting Station
Broken Clouds Broken Clouds  
Wind Chill: 60°   Ceiling: 5000
Heat Index: 60°   Visibility: 10mi
Dew Point: 54°   Wind: 9mph
Humidity: 80%   Direction: 150°SSE
Pressure: 29.79"   Gusts: NA
Location:  45.6165°N, 122.954°W
Report Text: KHIO 202353Z 15008KT 10SM FEW035 BKN050 BKN100 16/12 A2979 RMK AO2 SLP086 60018 T01560122 10172 20139 50004
Loading
Personal Weather Stations






























Interactive Weather Map
Tropical Storm Tracking
New forecast layout! Learn more

10-Day Weather Forecast

Advertisements
Track Severe Weather on mobile